createdAt,value
2022-08-22T00:00:01.268Z,82.93
2022-08-22T00:02:48.246Z,72.02
2022-08-22T00:05:01.492Z,83.15
2022-08-22T00:10:02.048Z,83.39
2022-08-22T00:15:01.705Z,83.27
2022-08-22T00:20:01.208Z,83.83
2022-08-22T00:25:01.833Z,85.21
2022-08-22T00:30:01.927Z,85.37
2022-08-22T00:35:01.227Z,85.18
2022-08-22T00:40:03.378Z,86.11
2022-08-22T00:45:02.066Z,85.97
2022-08-22T00:50:01.762Z,85.88
2022-08-22T00:55:01.202Z,86.29
2022-08-22T01:00:01.207Z,86.16
2022-08-22T01:05:01.605Z,85.95
2022-08-22T01:10:02.018Z,86.27
2022-08-22T01:15:01.958Z,87.3
2022-08-22T01:20:01.680Z,86.84
2022-08-22T01:25:01.325Z,86.65
2022-08-22T01:30:02.002Z,86.76
2022-08-22T01:35:01.775Z,86.95
2022-08-22T01:40:02.505Z,86.73
2022-08-22T01:45:01.730Z,86.95
2022-08-22T01:50:01.338Z,87.11
2022-08-22T01:55:01.579Z,87.52
2022-08-22T02:00:02.141Z,87.51
2022-08-22T02:05:02.105Z,87.24
2022-08-22T02:10:01.742Z,87.39
2022-08-22T02:15:01.403Z,87.6
2022-08-22T02:20:01.916Z,88.24
2022-08-22T02:25:01.394Z,87.4
2022-08-22T02:30:01.650Z,87.32
2022-08-22T02:35:02.089Z,87.68
2022-08-22T02:40:01.566Z,88.59
2022-08-22T02:45:02.072Z,89
2022-08-22T02:50:02.008Z,89.57
2022-08-22T02:55:01.938Z,90.34
2022-08-22T03:00:01.994Z,90.72
2022-08-22T03:05:01.928Z,91.06
2022-08-22T03:10:01.360Z,91.46
2022-08-22T03:15:01.642Z,91.32
2022-08-22T03:20:01.173Z,91.32
2022-08-22T03:25:01.474Z,91.35
2022-08-22T03:30:02.173Z,91.78
2022-08-22T03:35:01.573Z,92.05
2022-08-22T03:40:01.533Z,92.45
2022-08-22T03:45:01.637Z,92.53
2022-08-22T03:50:01.805Z,92.6
2022-08-22T03:55:01.807Z,92.27
2022-08-22T04:00:01.359Z,91.81
2022-08-22T04:05:01.721Z,92.31
2022-08-22T04:10:01.860Z,92.72
2022-08-22T04:15:01.463Z,93.38
2022-08-22T04:20:01.315Z,93.76
2022-08-22T04:25:05.824Z,93.47
2022-08-22T04:30:01.296Z,93.69
2022-08-22T04:35:01.341Z,94.19
2022-08-22T04:40:02.152Z,94.61
2022-08-22T04:45:01.590Z,94.65
2022-08-22T04:50:01.163Z,94.96
2022-08-22T04:55:01.265Z,95.28
2022-08-22T05:00:01.564Z,95.38
2022-08-22T05:05:01.176Z,95.39
2022-08-22T05:10:11.711Z,96.25
2022-08-22T05:15:01.513Z,96.21
2022-08-22T05:20:01.275Z,96.34
2022-08-22T05:25:01.835Z,96.41
2022-08-22T05:30:01.786Z,96.42
2022-08-22T05:35:02.134Z,96.54
2022-08-22T05:40:01.940Z,96.6
2022-08-22T05:45:01.340Z,96.22
2022-08-22T05:50:01.927Z,96.19
2022-08-22T05:55:01.390Z,96.11
2022-08-22T06:00:01.917Z,95.04
2022-08-22T06:05:01.284Z,94.34
2022-08-22T06:10:01.627Z,93.02
2022-08-22T06:15:01.594Z,91.35
2022-08-22T06:20:01.387Z,89.39
2022-08-22T06:25:01.520Z,87.27
2022-08-22T06:30:01.261Z,86.75
2022-08-22T06:35:02.118Z,85.18
2022-08-22T06:40:01.965Z,82.86
2022-08-22T06:45:01.904Z,80.51
2022-08-22T06:50:01.235Z,78.06
2022-08-22T06:55:01.574Z,75.71
2022-08-22T07:00:01.652Z,74.37
2022-08-22T07:05:01.334Z,73.95
2022-08-22T07:10:01.887Z,72.25
2022-08-22T07:15:01.992Z,72.89
2022-08-22T07:20:01.444Z,72.77
2022-08-22T07:25:01.605Z,72.08
2022-08-22T07:30:01.288Z,72.38
2022-08-22T07:35:01.603Z,72.61
2022-08-22T07:40:02.134Z,71.24
2022-08-22T07:45:01.449Z,71.09
2022-08-22T07:50:02.056Z,70.34
2022-08-22T07:55:01.248Z,69.34
2022-08-22T08:00:01.457Z,67.24
2022-08-22T08:05:01.443Z,66.11
2022-08-22T08:10:01.443Z,67.8
2022-08-22T08:15:01.725Z,65.56
2022-08-22T08:20:01.471Z,64.68
2022-08-22T08:25:01.412Z,63.29
2022-08-22T08:30:02.080Z,63.08
2022-08-22T08:35:02.171Z,62.44
2022-08-22T08:40:01.434Z,61.48
2022-08-22T08:45:01.238Z,60.81
2022-08-22T08:50:01.964Z,61.43
2022-08-22T08:55:01.440Z,63.13
2022-08-22T09:00:01.906Z,60.61
2022-08-22T09:05:01.165Z,59.19
2022-08-22T09:10:01.284Z,60.36
2022-08-22T09:15:02.038Z,58.56
2022-08-22T09:20:01.932Z,59.4
2022-08-22T09:25:06.342Z,60.66
2022-08-22T09:30:01.505Z,62.45
2022-08-22T09:35:01.236Z,62.31
2022-08-22T09:40:01.874Z,59.6
2022-08-22T09:45:01.489Z,62.74
2022-08-22T09:50:02.123Z,61.36
2022-08-22T09:55:01.329Z,59.97
2022-08-22T10:00:02.126Z,59.75
2022-08-22T10:05:02.045Z,62.74
2022-08-22T10:10:01.170Z,64.04
2022-08-22T10:15:01.185Z,59.94
2022-08-22T10:20:01.717Z,62.19
2022-08-22T10:25:01.215Z,59.64
2022-08-22T10:30:02.064Z,60.79
2022-08-22T10:35:01.302Z,59.97
2022-08-22T10:40:02.557Z,59.7
2022-08-22T10:45:01.986Z,57.64
2022-08-22T10:50:02.074Z,58.28
2022-08-22T10:55:01.914Z,57.65
2022-08-22T11:00:01.451Z,55.87
2022-08-22T11:05:01.509Z,54.35
2022-08-22T11:10:01.815Z,56.74
2022-08-22T11:15:02.930Z,56.2
2022-08-22T11:20:01.851Z,57.36
2022-08-22T11:25:04.401Z,56.75
2022-08-22T11:30:02.227Z,57.21
2022-08-22T11:35:01.649Z,56.49
2022-08-22T11:40:02.303Z,54.73
2022-08-22T11:45:02.056Z,54.41
2022-08-22T11:50:01.655Z,52.7
2022-08-22T11:55:01.604Z,52.36
2022-08-22T12:00:02.672Z,51.9
2022-08-22T12:05:02.084Z,49.63
2022-08-22T12:10:01.956Z,52.36
2022-08-22T12:15:03.168Z,51.74
2022-08-22T12:20:16.417Z,53.12
2022-08-22T12:25:03.095Z,48.55
2022-08-22T12:30:01.892Z,50.99
2022-08-22T12:35:01.534Z,50.35
2022-08-22T12:40:01.646Z,50.07
2022-08-22T12:45:03.560Z,48.09
2022-08-22T12:50:03.335Z,47.32
2022-08-22T12:55:02.331Z,47.84
2022-08-22T13:00:02.498Z,48.78
2022-08-22T13:05:02.679Z,48.39
2022-08-22T13:10:03.573Z,46.81
2022-08-22T13:15:01.415Z,49.18
2022-08-22T13:20:02.230Z,50
2022-08-22T13:25:02.313Z,48.55
2022-08-22T13:30:02.706Z,51.2
2022-08-22T13:35:01.455Z,50.51
2022-08-22T13:40:02.241Z,51.42
2022-08-22T13:45:02.512Z,50.32
2022-08-22T13:50:02.019Z,50.1
2022-08-22T13:55:02.046Z,50.46
2022-08-22T14:00:06.376Z,50.77
2022-08-22T14:05:03.972Z,49.9
2022-08-22T14:10:02.771Z,51.74
2022-08-22T14:15:02.245Z,49.78
2022-08-22T14:20:01.952Z,53.04
2022-08-22T14:25:01.385Z,50.77
2022-08-22T14:30:01.371Z,51.68
2022-08-22T14:35:01.745Z,52.61
2022-08-22T14:40:02.323Z,51.2
2022-08-22T14:45:02.144Z,50
2022-08-22T14:50:01.305Z,48.81
2022-08-22T14:55:06.165Z,47.98
2022-08-22T15:00:01.753Z,48.39
2022-08-22T15:05:01.903Z,48.97
2022-08-22T15:10:03.391Z,48.52
2022-08-22T15:15:02.732Z,48.26
2022-08-22T15:20:02.531Z,48.65
2022-08-22T15:25:02.632Z,48.17
2022-08-22T15:30:07.603Z,48.74
2022-08-22T15:35:01.410Z,47.74
2022-08-22T15:40:03.034Z,47.39
2022-08-22T15:45:02.924Z,47.59
2022-08-22T15:50:02.300Z,50.29
2022-08-22T15:55:01.924Z,47.44
2022-08-22T16:00:01.696Z,47.2
2022-08-22T16:05:02.543Z,47.85
2022-08-22T16:10:01.690Z,48.36
2022-08-22T16:15:02.050Z,48.66
2022-08-22T16:20:02.785Z,49.03
2022-08-22T16:25:02.519Z,50.06
2022-08-22T16:30:02.290Z,49.84
2022-08-22T16:35:02.035Z,49.71
2022-08-22T16:40:02.567Z,51.58
2022-08-22T16:45:01.414Z,50.32
2022-08-22T16:50:01.553Z,49
2022-08-22T16:55:02.018Z,49.66
2022-08-22T17:00:02.375Z,49.77
2022-08-22T17:05:02.166Z,49.77
2022-08-22T17:10:02.160Z,54.99
2022-08-22T17:15:01.653Z,50.38
2022-08-22T17:20:02.134Z,51.06
2022-08-22T17:25:02.147Z,49.07
2022-08-22T17:30:05.315Z,48.21
2022-08-22T17:35:02.430Z,48.86
2022-08-22T17:40:01.468Z,48.16
2022-08-22T17:45:02.588Z,48.16
2022-08-22T17:50:01.462Z,48.21
2022-08-22T17:55:02.572Z,47.68
2022-08-22T18:00:01.796Z,48.1
2022-08-22T18:05:01.790Z,49.27
2022-08-22T18:10:01.668Z,48.62
2022-08-22T18:15:01.789Z,52.54
2022-08-22T18:20:01.196Z,50.95
2022-08-22T18:25:01.517Z,49.19
2022-08-22T18:30:01.515Z,48.84
2022-08-22T18:35:02.722Z,49.83
2022-08-22T18:40:01.617Z,49.74
2022-08-22T18:45:02.082Z,49.28
2022-08-22T18:50:01.348Z,52.02
2022-08-22T18:55:01.431Z,52.31
2022-08-22T19:00:01.892Z,50.84
2022-08-22T19:05:01.242Z,51.45
2022-08-22T19:10:01.640Z,53.19
2022-08-22T19:15:01.282Z,54.25
2022-08-22T19:20:01.610Z,54.73
2022-08-22T19:25:01.378Z,55.52
2022-08-22T19:30:02.041Z,56.81
2022-08-22T19:35:02.156Z,57.11
2022-08-22T19:40:01.427Z,58.46
2022-08-22T19:45:01.384Z,59.68
2022-08-22T19:50:01.384Z,58.98
2022-08-22T19:55:01.267Z,60.14
2022-08-22T20:00:01.835Z,60.73
2022-08-22T20:05:01.614Z,60.52
2022-08-22T20:10:01.663Z,60.71
2022-08-22T20:15:01.278Z,63.77
2022-08-22T20:20:18.194Z,62.13
2022-08-22T20:25:01.437Z,61.4
2022-08-22T20:30:01.685Z,63.42
2022-08-22T20:35:01.712Z,64.09
2022-08-22T20:40:01.568Z,64.4
2022-08-22T20:45:01.717Z,64.29
2022-08-22T20:50:01.336Z,65.96
2022-08-22T20:55:02.087Z,65.23
2022-08-22T21:00:01.508Z,64.44
2022-08-22T21:05:02.031Z,65.14
2022-08-22T21:10:01.197Z,67.74
2022-08-22T21:15:02.032Z,65.42
2022-08-22T21:20:01.657Z,67.64
2022-08-22T21:25:02.079Z,67.04
2022-08-22T21:30:01.746Z,67.51
2022-08-22T21:35:01.613Z,68.17
2022-08-22T21:40:01.234Z,68.33
2022-08-22T21:45:02.087Z,70.53
2022-08-22T21:50:01.659Z,71.66
2022-08-22T21:55:01.443Z,71.6
2022-08-22T22:00:01.820Z,69.6
2022-08-22T22:05:01.857Z,68.45
2022-08-22T22:10:01.830Z,68.27
2022-08-22T22:15:01.147Z,68.87
2022-08-22T22:20:02.008Z,69.09
2022-08-22T22:25:01.898Z,70.31
2022-08-22T22:30:01.788Z,71.19
2022-08-22T22:35:01.606Z,71.48
2022-08-22T22:40:07.132Z,71.95
2022-08-22T22:45:02.094Z,73.67
2022-08-22T22:50:01.858Z,73.46
2022-08-22T22:55:01.489Z,73.24
2022-08-22T23:00:01.475Z,73.69
2022-08-22T23:05:01.282Z,73.89
2022-08-22T23:10:01.686Z,74.27
2022-08-22T23:15:01.399Z,74.27
2022-08-22T23:20:01.649Z,75.63
2022-08-22T23:25:01.212Z,76.02
2022-08-22T23:30:01.849Z,76.35
2022-08-22T23:35:01.245Z,76.49
2022-08-22T23:40:01.791Z,76.57
2022-08-22T23:45:01.580Z,77.25
2022-08-22T23:50:06.110Z,77.69
2022-08-22T23:55:02.141Z,77.64
